createdAt,value
2023-02-16T00:00:47.813Z,67.97
2023-02-16T00:03:17.369Z,68.50
2023-02-16T00:05:47.846Z,67.70
2023-02-16T00:08:15.813Z,74.70
2023-02-16T00:11:05.455Z,70.10
2023-02-16T00:13:44.877Z,66.47
2023-02-16T00:16:16.828Z,62.23
2023-02-16T00:18:45.894Z,66.77
2023-02-16T00:21:15.426Z,67.40
2023-02-16T00:23:43.779Z,61.07
2023-02-16T00:26:16.946Z,74.33
2023-02-16T00:28:45.243Z,68.87
2023-02-16T00:31:19.958Z,61.97
2023-02-16T00:33:48.891Z,62.97
2023-02-16T00:36:17.037Z,66.43
2023-02-16T00:38:45.074Z,71.13
2023-02-16T00:41:38.692Z,66.10
2023-02-16T00:44:08.813Z,75.97
2023-02-16T00:46:38.344Z,62.73
2023-02-16T00:49:06.373Z,63.53
2023-02-16T00:51:34.329Z,73.07
2023-02-16T00:54:02.770Z,66.70
2023-02-16T00:56:31.931Z,69.30
2023-02-16T00:59:01.649Z,68.70
2023-02-16T01:01:36.882Z,65.90
2023-02-16T01:04:11.549Z,65.30
2023-02-16T01:06:56.820Z,65.73
2023-02-16T01:09:42.746Z,60.60
2023-02-16T01:12:19.016Z,68.73
2023-02-16T01:14:51.173Z,73.67
2023-02-16T01:17:19.383Z,65.47
2023-02-16T01:19:48.860Z,62.60
2023-02-16T01:22:17.208Z,64.60
2023-02-16T01:24:46.192Z,66.93
2023-02-16T01:27:14.913Z,65.57
2023-02-16T01:29:43.183Z,63.57
2023-02-16T01:32:14.654Z,63.13
2023-02-16T01:34:42.914Z,63.37
2023-02-16T01:37:20.005Z,60.77
2023-02-16T01:39:47.976Z,57.30
2023-02-16T01:42:31.416Z,63.40
2023-02-16T01:45:02.822Z,61.07
2023-02-16T01:47:38.082Z,60.40
2023-02-16T01:50:19.288Z,59.27
2023-02-16T01:52:54.607Z,62.57
2023-02-16T01:55:27.059Z,62.23
2023-02-16T01:58:00.487Z,62.20
2023-02-16T02:00:30.618Z,60.03
2023-02-16T02:03:21.705Z,61.27
2023-02-16T02:05:49.807Z,56.83
2023-02-16T02:08:28.791Z,52.87
2023-02-16T02:11:08.457Z,65.67
2023-02-16T02:14:01.804Z,53.40
2023-02-16T02:16:30.015Z,57.90
2023-02-16T02:18:58.294Z,57.10
2023-02-16T02:22:12.842Z,55.57
2023-02-16T02:25:12.403Z,59.90
2023-02-16T02:27:48.748Z,57.33
2023-02-16T02:30:36.316Z,58.23
2023-02-16T02:33:18.771Z,53.40
2023-02-16T02:35:52.263Z,56.13
2023-02-16T02:38:28.944Z,56.60
2023-02-16T02:41:04.610Z,61.57
2023-02-16T02:43:39.986Z,54.53
2023-02-16T02:46:12.519Z,60.47
2023-02-16T02:48:40.525Z,61.57
2023-02-16T02:51:33.603Z,58.40
2023-02-16T02:54:21.826Z,66.70
2023-02-16T02:57:14.476Z,60.40
2023-02-16T03:00:03.861Z,60.07
2023-02-16T03:02:34.441Z,59.90
2023-02-16T03:05:06.432Z,51.47
2023-02-16T03:07:48.602Z,53.20
2023-02-16T03:10:36.726Z,55.80
2023-02-16T03:13:07.413Z,58.13
2023-02-16T03:15:39.031Z,55.30
2023-02-16T03:18:27.947Z,54.23
2023-02-16T03:21:14.717Z,55.90
2023-02-16T03:24:03.209Z,54.20
2023-02-16T03:26:50.100Z,49.50
2023-02-16T03:29:23.154Z,55.00
2023-02-16T03:31:55.129Z,50.97
2023-02-16T03:34:24.043Z,53.03
2023-02-16T03:36:54.960Z,52.50
2023-02-16T03:39:22.924Z,56.97
2023-02-16T03:41:53.165Z,53.07
2023-02-16T03:44:21.967Z,52.87
2023-02-16T03:46:50.186Z,51.80
2023-02-16T03:49:20.271Z,51.33
2023-02-16T03:51:48.435Z,54.13
2023-02-16T03:54:16.496Z,49.53
2023-02-16T03:56:44.499Z,53.47
2023-02-16T03:59:12.426Z,55.10
2023-02-16T04:01:40.363Z,50.90
2023-02-16T04:04:08.312Z,52.90
2023-02-16T04:06:37.737Z,51.20
2023-02-16T04:09:08.135Z,53.20
2023-02-16T04:11:54.099Z,53.10
2023-02-16T04:14:22.105Z,51.10
2023-02-16T04:16:50.356Z,47.27
2023-02-16T04:19:18.531Z,50.47
2023-02-16T04:21:47.908Z,47.10
2023-02-16T04:24:16.223Z,48.87
2023-02-16T04:26:45.768Z,49.73
2023-02-16T04:29:13.688Z,50.30
2023-02-16T04:31:41.707Z,49.60
2023-02-16T04:34:11.030Z,48.90
2023-02-16T04:36:39.286Z,53.33
2023-02-16T04:39:08.785Z,53.80
2023-02-16T04:41:36.712Z,53.33
2023-02-16T04:44:04.663Z,52.20
2023-02-16T04:46:32.805Z,48.77
2023-02-16T04:49:02.047Z,50.27
2023-02-16T04:51:30.070Z,50.00
2023-02-16T04:53:58.336Z,55.73
2023-02-16T04:56:28.216Z,52.87
2023-02-16T04:58:57.093Z,48.17
2023-02-16T05:01:28.311Z,49.40
2023-02-16T05:03:56.844Z,49.83
2023-02-16T05:06:24.785Z,47.90
2023-02-16T05:08:54.919Z,48.93
2023-02-16T05:11:40.487Z,51.60
2023-02-16T05:14:38.992Z,52.73
2023-02-16T05:17:08.166Z,51.23
2023-02-16T05:19:36.180Z,47.93
2023-02-16T05:22:05.119Z,52.20
2023-02-16T05:24:34.566Z,49.70
2023-02-16T05:27:02.836Z,51.87
2023-02-16T05:29:32.305Z,48.47
2023-02-16T05:32:03.988Z,53.00
2023-02-16T05:34:32.639Z,54.17
2023-02-16T05:37:02.647Z,52.77
2023-02-16T05:39:30.605Z,49.27
2023-02-16T05:41:58.916Z,50.30
2023-02-16T05:44:27.053Z,48.87
2023-02-16T05:46:56.338Z,54.13
2023-02-16T05:49:24.289Z,55.53
2023-02-16T05:51:52.346Z,51.07
2023-02-16T05:54:20.345Z,50.70
2023-02-16T05:56:49.855Z,52.63
2023-02-16T05:59:18.567Z,49.67
2023-02-16T06:01:50.991Z,54.27
2023-02-16T06:04:22.228Z,51.50
2023-02-16T06:06:50.937Z,54.67
2023-02-16T06:09:19.300Z,55.37
2023-02-16T06:11:47.665Z,51.93
2023-02-16T06:14:17.598Z,53.13
2023-02-16T06:16:48.421Z,56.43
2023-02-16T06:19:18.422Z,55.47
2023-02-16T06:21:48.575Z,56.40
2023-02-16T06:24:17.077Z,53.90
2023-02-16T06:26:45.070Z,53.00
2023-02-16T06:29:13.064Z,53.97
2023-02-16T06:31:41.300Z,60.83
2023-02-16T06:34:09.488Z,57.67
2023-02-16T06:36:37.544Z,46.90
2023-02-16T06:39:06.847Z,51.07
2023-02-16T06:41:37.838Z,53.80
2023-02-16T06:44:07.556Z,52.80
2023-02-16T06:46:56.164Z,52.23
2023-02-16T06:49:27.405Z,47.67
2023-02-16T06:51:55.897Z,48.70
2023-02-16T06:54:25.297Z,49.33
2023-02-16T06:56:53.241Z,55.47
2023-02-16T06:59:21.301Z,49.80
2023-02-16T07:01:49.221Z,55.73
2023-02-16T07:04:17.100Z,48.53
2023-02-16T07:06:45.046Z,53.10
2023-02-16T07:09:14.184Z,52.00
2023-02-16T07:11:43.588Z,50.83
2023-02-16T07:14:11.620Z,50.60
2023-02-16T07:16:39.860Z,55.23
2023-02-16T07:19:07.924Z,54.13
2023-02-16T07:21:36.095Z,50.83
2023-02-16T07:24:04.418Z,54.33
2023-02-16T07:26:32.576Z,58.03
2023-02-16T07:29:01.880Z,50.60
2023-02-16T07:31:29.998Z,54.33
2023-02-16T07:33:58.341Z,55.40
2023-02-16T07:36:26.336Z,55.60
2023-02-16T07:38:55.035Z,52.87
2023-02-16T07:41:23.399Z,52.10
2023-02-16T07:43:51.393Z,55.93
2023-02-16T07:46:20.770Z,49.37
2023-02-16T07:48:49.095Z,54.37
2023-02-16T07:51:22.806Z,51.13
2023-02-16T07:53:51.441Z,53.83
2023-02-16T07:56:21.245Z,48.83
2023-02-16T07:58:49.283Z,57.43
2023-02-16T08:01:17.747Z,56.43
2023-02-16T08:03:47.420Z,57.23
2023-02-16T08:06:15.986Z,55.17
2023-02-16T08:08:44.615Z,57.20
2023-02-16T08:11:14.075Z,57.23
2023-02-16T08:13:42.182Z,54.50
2023-02-16T08:16:11.300Z,56.67
2023-02-16T08:18:41.852Z,58.30
2023-02-16T08:21:14.885Z,55.60
2023-02-16T08:23:47.316Z,56.57
2023-02-16T08:26:17.472Z,49.90
2023-02-16T08:28:47.190Z,54.23
2023-02-16T08:31:16.992Z,53.53
2023-02-16T08:33:45.242Z,57.73
2023-02-16T08:36:19.687Z,55.73
2023-02-16T08:38:50.231Z,59.57
2023-02-16T08:41:18.891Z,55.03
2023-02-16T08:43:47.385Z,60.60
2023-02-16T08:46:15.683Z,55.33
2023-02-16T08:48:45.115Z,52.87
2023-02-16T08:51:15.759Z,56.33
2023-02-16T08:53:45.065Z,61.13
2023-02-16T08:56:13.413Z,56.80
2023-02-16T08:58:44.906Z,55.90
2023-02-16T09:01:14.071Z,57.83
2023-02-16T09:03:44.832Z,56.23
2023-02-16T09:06:15.157Z,55.70
2023-02-16T09:08:46.462Z,55.77
2023-02-16T09:11:17.020Z,55.83
2023-02-16T09:13:47.023Z,52.87
2023-02-16T09:16:17.514Z,56.80
2023-02-16T09:18:45.926Z,54.03
2023-02-16T09:21:16.464Z,56.07
2023-02-16T09:23:48.509Z,53.93
2023-02-16T09:26:17.653Z,56.80
2023-02-16T09:28:47.287Z,55.20
2023-02-16T09:31:20.101Z,59.80
2023-02-16T09:33:48.238Z,56.20
2023-02-16T09:36:16.357Z,64.37
2023-02-16T09:38:47.418Z,56.00
2023-02-16T09:41:24.105Z,58.73
2023-02-16T09:43:57.714Z,54.77
2023-02-16T09:46:28.076Z,58.00
2023-02-16T09:48:57.122Z,59.57
2023-02-16T09:51:34.478Z,58.60
2023-02-16T09:54:14.263Z,57.07
2023-02-16T09:56:47.535Z,51.60
2023-02-16T09:59:34.154Z,57.43
2023-02-16T10:02:20.686Z,56.97
2023-02-16T10:05:01.160Z,59.93
2023-02-16T10:07:34.267Z,57.77
2023-02-16T10:10:06.006Z,57.87
2023-02-16T10:12:40.649Z,60.53
2023-02-16T10:15:16.389Z,58.17
2023-02-16T10:17:50.279Z,60.50
2023-02-16T10:20:23.178Z,55.73
2023-02-16T10:23:16.713Z,60.90
2023-02-16T10:25:54.624Z,56.47
2023-02-16T10:28:29.567Z,61.07
2023-02-16T10:31:03.167Z,52.50
2023-02-16T10:33:43.173Z,58.70
2023-02-16T10:36:17.992Z,63.50
2023-02-16T10:38:55.356Z,57.40
2023-02-16T10:41:33.899Z,63.37
2023-02-16T10:44:07.430Z,60.50
2023-02-16T10:46:40.781Z,53.60
2023-02-16T10:49:12.496Z,56.07
2023-02-16T10:51:42.745Z,53.93
2023-02-16T10:54:17.188Z,56.53
2023-02-16T10:56:57.436Z,57.73
2023-02-16T10:59:27.655Z,53.27
2023-02-16T11:01:59.801Z,56.03
2023-02-16T11:04:32.527Z,53.07
2023-02-16T11:07:05.116Z,53.80
2023-02-16T11:09:33.649Z,55.93
2023-02-16T11:12:04.166Z,58.03
2023-02-16T11:14:33.120Z,55.13
2023-02-16T11:17:07.535Z,53.27
2023-02-16T11:19:36.454Z,49.40
2023-02-16T11:22:04.599Z,51.53
2023-02-16T11:24:34.634Z,47.77
2023-02-16T11:27:07.496Z,53.50
2023-02-16T11:29:35.784Z,45.77
2023-02-16T11:32:08.656Z,46.97
2023-02-16T11:34:40.836Z,49.60
2023-02-16T11:37:26.817Z,50.20
2023-02-16T11:39:57.447Z,45.17
2023-02-16T11:42:32.527Z,49.67
2023-02-16T11:45:03.376Z,45.20
2023-02-16T11:47:37.988Z,49.37
2023-02-16T11:50:19.942Z,44.77
2023-02-16T11:52:49.763Z,45.00
2023-02-16T11:55:26.937Z,44.30
2023-02-16T11:57:57.330Z,46.23
2023-02-16T12:00:26.646Z,41.37
2023-02-16T12:03:16.971Z,44.33
2023-02-16T12:06:07.966Z,41.50
2023-02-16T12:08:59.296Z,42.17
2023-02-16T12:11:36.976Z,41.33
2023-02-16T12:14:36.456Z,44.23
2023-02-16T12:17:17.935Z,39.47
2023-02-16T12:19:48.139Z,41.20
2023-02-16T12:22:30.803Z,37.27
2023-02-16T12:25:11.261Z,35.40
2023-02-16T12:27:47.041Z,36.77
2023-02-16T12:30:29.202Z,36.20
2023-02-16T12:33:07.988Z,35.47
2023-02-16T12:35:49.986Z,30.40
2023-02-16T12:38:28.668Z,36.43
2023-02-16T12:41:03.965Z,35.67
2023-02-16T12:43:38.895Z,33.60
2023-02-16T12:46:15.453Z,32.90
2023-02-16T12:48:50.024Z,35.67
2023-02-16T12:51:22.671Z,36.23
2023-02-16T12:54:00.486Z,34.07
2023-02-16T12:56:32.764Z,35.90
2023-02-16T12:59:18.113Z,35.87
2023-02-16T13:01:49.301Z,38.33
2023-02-16T13:04:23.280Z,35.13
2023-02-16T13:06:58.851Z,37.73
2023-02-16T13:09:38.152Z,32.97
2023-02-16T13:12:12.734Z,32.53
2023-02-16T13:14:44.730Z,32.27
2023-02-16T13:17:18.943Z,33.10
2023-02-16T13:19:48.632Z,36.07
2023-02-16T13:22:45.087Z,33.27
2023-02-16T13:25:47.685Z,36.63
2023-02-16T13:28:38.461Z,32.40
2023-02-16T13:31:24.863Z,41.53
2023-02-16T13:34:30.162Z,34.87
2023-02-16T13:37:09.563Z,33.97
2023-02-16T13:39:48.067Z,31.07
2023-02-16T13:42:37.156Z,31.60
2023-02-16T13:45:12.853Z,30.90
2023-02-16T13:47:42.647Z,31.53
2023-02-16T13:50:30.096Z,31.60
2023-02-16T13:53:00.806Z,33.33
2023-02-16T13:55:31.674Z,28.73
2023-02-16T13:58:04.849Z,32.17
2023-02-16T14:00:36.643Z,30.33
2023-02-16T14:03:12.533Z,35.60
2023-02-16T14:05:43.886Z,30.77
2023-02-16T14:08:18.928Z,30.77
2023-02-16T14:11:11.567Z,30.97
2023-02-16T14:13:51.141Z,28.10
2023-02-16T14:16:34.786Z,29.53
2023-02-16T14:19:20.437Z,30.07
2023-02-16T14:21:50.811Z,26.13
2023-02-16T14:24:31.246Z,29.07
2023-02-16T14:27:02.361Z,24.73
2023-02-16T14:29:33.443Z,25.20
2023-02-16T14:32:06.209Z,24.77
2023-02-16T14:34:40.217Z,23.40
2023-02-16T14:37:36.733Z,21.40
2023-02-16T14:40:15.543Z,25.20
2023-02-16T14:42:52.576Z,24.93
2023-02-16T14:46:02.226Z,20.03
2023-02-16T14:48:50.858Z,25.17
2023-02-16T14:51:40.620Z,28.87
2023-02-16T14:54:45.424Z,22.27
2023-02-16T14:57:17.103Z,27.07
2023-02-16T14:59:51.754Z,24.60
2023-02-16T15:02:32.178Z,26.63
2023-02-16T15:05:16.138Z,26.63
2023-02-16T15:07:46.516Z,25.80
2023-02-16T15:10:16.956Z,25.30
2023-02-16T15:12:49.018Z,24.73
2023-02-16T15:15:23.498Z,31.73
2023-02-16T15:17:53.254Z,28.40
2023-02-16T15:20:25.540Z,26.67
2023-02-16T15:22:54.844Z,25.40
2023-02-16T15:25:27.699Z,28.57
2023-02-16T15:28:00.731Z,28.17
2023-02-16T15:30:31.623Z,25.87
2023-02-16T15:33:01.782Z,23.83
2023-02-16T15:35:34.382Z,29.00
2023-02-16T15:38:05.500Z,25.77
2023-02-16T15:40:35.232Z,27.40
2023-02-16T15:43:11.053Z,30.57
2023-02-16T15:45:39.680Z,25.27
2023-02-16T15:48:27.808Z,27.00
2023-02-16T15:50:58.707Z,27.00
2023-02-16T15:53:38.955Z,23.87
2023-02-16T15:56:32.621Z,22.77
2023-02-16T15:59:05.310Z,31.80
2023-02-16T16:01:36.142Z,25.37
2023-02-16T16:04:08.520Z,24.73
2023-02-16T16:06:39.389Z,22.90
2023-02-16T16:09:10.979Z,24.23
2023-02-16T16:11:39.100Z,24.80
2023-02-16T16:14:08.592Z,22.23
2023-02-16T16:16:36.783Z,22.80
2023-02-16T16:19:15.260Z,18.33
2023-02-16T16:21:51.306Z,16.83
2023-02-16T16:24:33.688Z,18.97
2023-02-16T16:27:04.484Z,17.43
2023-02-16T16:29:41.202Z,21.15
2023-02-16T16:32:19.817Z,20.93
2023-02-16T16:34:47.863Z,22.50
2023-02-16T16:37:28.461Z,19.80
2023-02-16T16:40:04.289Z,19.47
2023-02-16T16:42:33.602Z,20.10
2023-02-16T16:45:07.286Z,18.57
2023-02-16T16:47:39.016Z,18.90
2023-02-16T16:50:24.047Z,16.93
2023-02-16T16:52:52.576Z,20.27
2023-02-16T16:55:27.340Z,17.47
2023-02-16T16:57:57.091Z,20.40
2023-02-16T17:00:28.515Z,18.57
2023-02-16T17:02:56.501Z,18.90
2023-02-16T17:05:24.660Z,17.70
2023-02-16T17:07:52.660Z,18.50
2023-02-16T17:10:22.194Z,16.30
2023-02-16T17:12:53.923Z,15.20
2023-02-16T17:15:35.598Z,16.67
2023-02-16T17:18:04.149Z,15.57
2023-02-16T17:20:32.415Z,19.37
2023-02-16T17:23:04.661Z,15.40
2023-02-16T17:25:34.880Z,18.73
2023-02-16T17:28:03.594Z,12.73
2023-02-16T17:30:33.793Z,13.97
2023-02-16T17:33:01.909Z,12.70
2023-02-16T17:35:31.578Z,9.87
2023-02-16T17:38:00.144Z,5.50
2023-02-16T17:40:28.151Z,9.07
2023-02-16T17:42:56.171Z,9.97
2023-02-16T17:45:24.182Z,11.00
2023-02-16T17:47:53.881Z,11.43
2023-02-16T17:50:22.286Z,8.33
2023-02-16T17:52:50.642Z,10.43
2023-02-16T17:55:19.123Z,9.67
2023-02-16T17:57:47.056Z,7.73
2023-02-16T18:00:19.055Z,8.20
2023-02-16T18:02:47.415Z,6.40
2023-02-16T18:05:19.466Z,7.23
2023-02-16T18:07:47.726Z,7.90
2023-02-16T18:10:20.095Z,5.83
2023-02-16T18:12:48.101Z,7.00
2023-02-16T18:15:16.474Z,7.83
2023-02-16T18:17:44.443Z,7.50
2023-02-16T18:20:17.415Z,8.40
2023-02-16T18:22:45.431Z,7.40
2023-02-16T18:25:13.453Z,7.00
2023-02-16T18:27:41.428Z,6.37
2023-02-16T18:30:10.320Z,7.23
2023-02-16T18:32:38.794Z,7.37
2023-02-16T18:35:07.279Z,6.63
2023-02-16T18:37:36.865Z,7.23
2023-02-16T18:40:06.561Z,6.73
2023-02-16T18:42:34.585Z,7.20
2023-02-16T18:45:02.990Z,6.03
2023-02-16T18:47:31.020Z,6.63
2023-02-16T18:49:59.032Z,5.83
2023-02-16T18:52:27.069Z,5.90
2023-02-16T18:54:57.039Z,5.87
2023-02-16T18:57:25.149Z,5.73
2023-02-16T18:59:53.242Z,5.17
2023-02-16T19:02:22.315Z,4.27
2023-02-16T19:04:50.515Z,5.67
2023-02-16T19:07:19.822Z,7.47
2023-02-16T19:09:48.030Z,6.63
2023-02-16T19:12:18.290Z,8.07
2023-02-16T19:14:46.627Z,7.30
2023-02-16T19:17:14.725Z,7.73
2023-02-16T19:19:42.680Z,6.43
2023-02-16T19:22:10.969Z,6.87
2023-02-16T19:24:38.960Z,7.13
2023-02-16T19:27:07.023Z,8.53
2023-02-16T19:29:37.093Z,12.33
2023-02-16T19:32:05.544Z,9.27
2023-02-16T19:34:34.632Z,7.53
2023-02-16T19:37:02.663Z,7.97
2023-02-16T19:39:30.629Z,7.80
2023-02-16T19:42:00.165Z,8.77
2023-02-16T19:44:28.870Z,6.40
2023-02-16T19:46:58.258Z,8.67
2023-02-16T19:49:26.287Z,11.60
2023-02-16T19:51:55.510Z,9.67
2023-02-16T19:54:25.161Z,9.87
2023-02-16T19:56:54.405Z,10.20
2023-02-16T19:59:23.195Z,11.07
2023-02-16T20:01:51.407Z,9.63
2023-02-16T20:04:20.769Z,11.17
2023-02-16T20:06:49.688Z,14.93
2023-02-16T20:09:18.820Z,13.33
2023-02-16T20:11:53.627Z,11.77
2023-02-16T20:14:22.137Z,11.47
2023-02-16T20:17:10.131Z,8.63
2023-02-16T20:19:39.625Z,10.70
2023-02-16T20:22:07.809Z,16.30
2023-02-16T20:24:36.747Z,11.23
2023-02-16T20:27:05.034Z,9.87
2023-02-16T20:29:33.395Z,10.63
2023-02-16T20:32:02.036Z,9.43
2023-02-16T20:34:30.112Z,12.20
2023-02-16T20:36:59.498Z,9.67
2023-02-16T20:39:27.856Z,8.43
2023-02-16T20:41:58.302Z,12.10
2023-02-16T20:44:26.943Z,12.90
2023-02-16T20:46:55.036Z,11.60
2023-02-16T20:49:23.573Z,9.23
2023-02-16T20:51:51.586Z,10.97
2023-02-16T20:54:21.232Z,11.70
2023-02-16T20:56:49.257Z,11.97
2023-02-16T20:59:17.604Z,15.13
2023-02-16T21:01:50.256Z,9.33
2023-02-16T21:04:20.627Z,12.10
2023-02-16T21:06:49.016Z,10.87
2023-02-16T21:09:17.485Z,12.23
2023-02-16T21:11:47.027Z,13.07
2023-02-16T21:14:16.851Z,8.77
2023-02-16T21:16:45.228Z,12.47
2023-02-16T21:19:22.653Z,11.63
2023-02-16T21:21:51.506Z,6.73
2023-02-16T21:24:43.594Z,8.83
2023-02-16T21:27:15.585Z,11.20
2023-02-16T21:29:43.786Z,10.03
2023-02-16T21:32:12.451Z,12.63
2023-02-16T21:34:40.667Z,11.03
2023-02-16T21:37:08.630Z,11.90
2023-02-16T21:39:54.400Z,13.10
2023-02-16T21:42:23.761Z,12.83
2023-02-16T21:45:11.948Z,10.10
2023-02-16T21:47:58.432Z,9.13
2023-02-16T21:50:27.160Z,12.07
2023-02-16T21:52:55.529Z,12.07
2023-02-16T21:55:41.026Z,12.90
2023-02-16T21:58:10.814Z,12.57
2023-02-16T22:00:39.361Z,11.77
2023-02-16T22:03:08.784Z,11.43
2023-02-16T22:05:39.078Z,12.73
2023-02-16T22:08:07.230Z,18.10
2023-02-16T22:10:36.033Z,10.77
2023-02-16T22:13:04.031Z,13.47
2023-02-16T22:15:36.169Z,8.90
2023-02-16T22:18:04.505Z,14.37
2023-02-16T22:20:32.718Z,16.30
2023-02-16T22:23:00.788Z,15.80
2023-02-16T22:25:29.138Z,19.67
2023-02-16T22:27:57.375Z,19.90
2023-02-16T22:30:25.317Z,16.47
2023-02-16T22:32:54.652Z,25.33
2023-02-16T22:35:22.579Z,16.87
2023-02-16T22:37:50.577Z,15.43
2023-02-16T22:40:19.009Z,20.33
2023-02-16T22:42:47.038Z,17.10
2023-02-16T22:45:15.004Z,14.53
2023-02-16T22:47:43.280Z,18.27
2023-02-16T22:50:12.845Z,16.60
2023-02-16T22:52:41.556Z,25.40
2023-02-16T22:55:10.334Z,21.80
2023-02-16T22:57:38.925Z,21.00
2023-02-16T23:00:09.607Z,21.43
2023-02-16T23:02:38.445Z,22.63
2023-02-16T23:05:07.060Z,17.10
2023-02-16T23:07:38.612Z,18.70
2023-02-16T23:10:07.851Z,19.90
2023-02-16T23:12:36.270Z,20.50
2023-02-16T23:15:04.298Z,18.83
2023-02-16T23:17:32.301Z,12.93
2023-02-16T23:20:00.543Z,24.43
2023-02-16T23:22:30.655Z,19.57
2023-02-16T23:25:17.586Z,25.67
2023-02-16T23:27:45.599Z,16.37
2023-02-16T23:30:14.188Z,17.63
2023-02-16T23:32:42.231Z,17.53
2023-02-16T23:35:10.228Z,27.33
2023-02-16T23:37:38.325Z,17.73
2023-02-16T23:40:09.049Z,23.73
2023-02-16T23:42:36.975Z,21.30
2023-02-16T23:45:05.615Z,24.17
2023-02-16T23:47:33.581Z,21.13
2023-02-16T23:50:01.791Z,20.90
2023-02-16T23:52:29.920Z,25.53
2023-02-16T23:54:57.871Z,25.80
2023-02-16T23:57:27.203Z,24.73
2023-02-16T23:59:55.167Z,23.40
